createdAt,value
2022-11-08T00:00:03.021Z,1.07
2022-11-08T00:02:33.817Z,1.03
2022-11-08T00:05:20.759Z,0.90
2022-11-08T00:08:06.344Z,1.10
2022-11-08T00:10:52.062Z,1.93
2022-11-08T00:13:37.898Z,1.10
2022-11-08T00:16:06.281Z,1.07
2022-11-08T00:18:34.265Z,1.20
2022-11-08T00:21:04.058Z,1.30
2022-11-08T00:23:32.124Z,0.80
2022-11-08T00:26:00.060Z,1.30
2022-11-08T00:28:28.037Z,1.00
2022-11-08T00:30:56.017Z,1.40
2022-11-08T00:33:24.070Z,1.30
2022-11-08T00:35:51.989Z,1.43
2022-11-08T00:38:21.405Z,1.10
2022-11-08T00:40:49.392Z,1.20
2022-11-08T00:43:17.350Z,1.10
2022-11-08T00:45:45.411Z,1.20
2022-11-08T00:48:13.423Z,1.30
2022-11-08T00:50:41.670Z,1.20
2022-11-08T00:53:09.619Z,1.10
2022-11-08T00:55:38.979Z,1.20
2022-11-08T00:58:07.003Z,1.03
2022-11-08T01:00:35.095Z,1.20
2022-11-08T01:03:21.439Z,1.10
2022-11-08T01:05:50.264Z,1.33
2022-11-08T01:08:19.483Z,1.20
2022-11-08T01:10:50.509Z,1.10
2022-11-08T01:13:19.226Z,1.20
2022-11-08T01:16:09.387Z,1.03
2022-11-08T01:18:37.782Z,1.27
2022-11-08T01:21:06.475Z,0.83
2022-11-08T01:23:35.003Z,1.13
2022-11-08T01:26:06.398Z,1.10
2022-11-08T01:28:34.482Z,1.10
2022-11-08T01:31:05.452Z,1.17
2022-11-08T01:33:33.792Z,1.10
2022-11-08T01:36:01.946Z,1.20
2022-11-08T01:38:29.951Z,0.90
2022-11-08T01:40:57.947Z,1.20
2022-11-08T01:43:40.073Z,1.20
2022-11-08T01:46:38.850Z,0.90
2022-11-08T01:49:25.883Z,1.00
2022-11-08T01:51:58.652Z,0.83
2022-11-08T01:54:29.618Z,1.27
2022-11-08T01:56:57.872Z,1.97
2022-11-08T01:59:27.845Z,1.33
2022-11-08T02:01:56.522Z,1.40
2022-11-08T02:04:24.675Z,1.60
2022-11-08T02:06:52.850Z,1.20
2022-11-08T02:09:21.088Z,1.00
2022-11-08T02:11:49.762Z,1.03
2022-11-08T02:14:18.920Z,1.17
2022-11-08T02:16:48.245Z,1.33
2022-11-08T02:19:21.662Z,1.30
2022-11-08T02:21:52.959Z,1.10
2022-11-08T02:24:22.292Z,1.20
2022-11-08T02:26:51.346Z,1.30
2022-11-08T02:29:31.143Z,1.13
2022-11-08T02:32:00.385Z,1.00
2022-11-08T02:34:31.102Z,1.00
2022-11-08T02:36:59.618Z,1.20
2022-11-08T02:39:30.087Z,1.30
2022-11-08T02:41:58.139Z,1.40
2022-11-08T02:44:50.950Z,1.13
2022-11-08T02:47:19.030Z,1.07
2022-11-08T02:49:47.035Z,1.33
2022-11-08T02:52:15.017Z,1.10
2022-11-08T02:54:44.383Z,1.40
2022-11-08T02:57:12.344Z,1.10
2022-11-08T03:00:05.184Z,1.20
2022-11-08T03:02:33.202Z,1.30
2022-11-08T03:05:01.265Z,1.43
2022-11-08T03:07:29.280Z,1.70
2022-11-08T03:09:58.622Z,1.03
2022-11-08T03:12:26.722Z,1.20
2022-11-08T03:14:54.753Z,1.33
2022-11-08T03:17:22.756Z,1.10
2022-11-08T03:19:50.773Z,1.47
2022-11-08T03:22:18.785Z,1.23
2022-11-08T03:24:46.775Z,1.80
2022-11-08T03:27:16.494Z,1.07
2022-11-08T03:29:44.470Z,1.47
2022-11-08T03:32:12.515Z,1.43
2022-11-08T03:34:40.498Z,1.40
2022-11-08T03:37:09.620Z,1.50
2022-11-08T03:39:37.854Z,1.13
2022-11-08T03:42:06.409Z,1.60
2022-11-08T03:44:35.868Z,1.10
2022-11-08T03:47:03.835Z,1.50
2022-11-08T03:49:31.830Z,1.27
2022-11-08T03:51:59.857Z,1.40
2022-11-08T03:54:27.987Z,1.43
2022-11-08T03:56:55.975Z,1.13
2022-11-08T03:59:23.914Z,1.00
2022-11-08T04:01:53.366Z,1.17
2022-11-08T04:04:21.649Z,1.37
2022-11-08T04:06:49.765Z,1.10
2022-11-08T04:09:21.324Z,1.30
2022-11-08T04:12:07.155Z,1.20
2022-11-08T04:14:57.776Z,0.93
2022-11-08T04:17:47.319Z,1.20
2022-11-08T04:20:32.079Z,1.37
2022-11-08T04:23:00.113Z,1.57
2022-11-08T04:25:31.223Z,1.50
2022-11-08T04:28:02.944Z,1.40
2022-11-08T04:30:30.954Z,1.30
2022-11-08T04:33:02.247Z,1.10
2022-11-08T04:35:30.290Z,1.47
2022-11-08T04:38:01.625Z,1.20
2022-11-08T04:40:31.744Z,1.30
2022-11-08T04:42:59.751Z,1.50
2022-11-08T04:45:27.728Z,1.53
2022-11-08T04:47:55.726Z,1.93
2022-11-08T04:50:25.044Z,2.20
2022-11-08T04:52:53.717Z,1.73
2022-11-08T04:55:21.948Z,1.60
2022-11-08T04:57:50.602Z,1.70
2022-11-08T05:00:19.238Z,1.53
2022-11-08T05:02:47.281Z,1.30
2022-11-08T05:05:15.266Z,1.33
2022-11-08T05:07:44.614Z,1.60
2022-11-08T05:10:12.614Z,1.43
2022-11-08T05:12:40.675Z,1.90
2022-11-08T05:15:09.963Z,1.60
2022-11-08T05:17:38.009Z,1.37
2022-11-08T05:20:24.460Z,1.50
2022-11-08T05:23:11.593Z,1.63
2022-11-08T05:25:41.125Z,1.47
2022-11-08T05:28:09.084Z,1.40
2022-11-08T05:30:37.103Z,1.10
2022-11-08T05:33:05.274Z,1.20
2022-11-08T05:35:34.428Z,1.43
2022-11-08T05:38:03.826Z,1.40
2022-11-08T05:40:33.479Z,1.43
2022-11-08T05:43:02.739Z,1.40
2022-11-08T05:45:30.774Z,1.23
2022-11-08T05:48:03.655Z,1.43
2022-11-08T05:50:32.471Z,1.43
2022-11-08T05:53:07.539Z,1.50
2022-11-08T05:55:35.586Z,1.57
2022-11-08T05:58:03.567Z,1.10
2022-11-08T06:00:31.738Z,1.50
2022-11-08T06:02:59.880Z,2.07
2022-11-08T06:05:28.109Z,1.70
2022-11-08T06:07:56.273Z,1.87
2022-11-08T06:10:26.197Z,1.90
2022-11-08T06:12:54.294Z,1.47
2022-11-08T06:15:22.285Z,2.00
2022-11-08T06:17:50.407Z,1.30
2022-11-08T06:20:18.620Z,1.30
2022-11-08T06:22:47.266Z,1.20
2022-11-08T06:25:15.402Z,1.60
2022-11-08T06:27:44.845Z,1.43
2022-11-08T06:30:14.011Z,1.77
2022-11-08T06:32:42.080Z,1.80
2022-11-08T06:35:10.630Z,2.03
2022-11-08T06:37:38.616Z,1.90
2022-11-08T06:40:08.052Z,1.80
2022-11-08T06:42:35.997Z,1.70
2022-11-08T06:45:05.867Z,1.57
2022-11-08T06:47:33.895Z,1.30
2022-11-08T06:50:01.967Z,1.70
2022-11-08T06:52:29.959Z,1.30
2022-11-08T06:54:57.985Z,1.77
2022-11-08T06:57:26.053Z,1.60
2022-11-08T06:59:54.035Z,1.20
2022-11-08T07:02:23.530Z,1.23
2022-11-08T07:04:51.668Z,1.40
2022-11-08T07:07:19.805Z,1.30
2022-11-08T07:09:48.122Z,1.40
2022-11-08T07:12:16.163Z,1.80
2022-11-08T07:14:44.161Z,1.50
2022-11-08T07:17:12.330Z,1.60
2022-11-08T07:19:41.725Z,1.30
2022-11-08T07:22:09.729Z,1.60
2022-11-08T07:24:37.702Z,1.23
2022-11-08T07:27:05.993Z,1.70
2022-11-08T07:29:34.072Z,1.50
2022-11-08T07:32:02.134Z,1.57
2022-11-08T07:34:31.525Z,1.20
2022-11-08T07:37:00.998Z,1.93
2022-11-08T07:39:28.974Z,1.50
2022-11-08T07:41:56.984Z,1.23
2022-11-08T07:44:27.987Z,1.43
2022-11-08T07:46:56.488Z,1.20
2022-11-08T07:49:24.526Z,1.20
2022-11-08T07:52:10.990Z,1.40
2022-11-08T07:55:17.569Z,1.33
2022-11-08T07:58:01.408Z,1.43
2022-11-08T08:00:37.197Z,1.50
2022-11-08T08:03:14.435Z,1.13
2022-11-08T08:05:43.846Z,1.30
2022-11-08T08:08:14.730Z,1.10
2022-11-08T08:10:49.871Z,1.27
2022-11-08T08:13:26.908Z,1.53
2022-11-08T08:16:02.713Z,1.47
2022-11-08T08:18:31.366Z,1.43
2022-11-08T08:21:09.583Z,1.70
2022-11-08T08:23:43.860Z,1.53
2022-11-08T08:26:13.164Z,1.40
2022-11-08T08:28:44.792Z,1.40
2022-11-08T08:31:20.082Z,1.37
2022-11-08T08:33:56.895Z,1.13
2022-11-08T08:36:25.420Z,1.47
2022-11-08T08:39:16.057Z,1.40
2022-11-08T08:41:57.120Z,1.33
2022-11-08T08:44:31.978Z,1.47
2022-11-08T08:47:01.003Z,1.77
2022-11-08T08:49:40.219Z,1.20
2022-11-08T08:52:09.256Z,1.33
2022-11-08T08:54:39.640Z,1.40
2022-11-08T08:57:10.493Z,1.20
2022-11-08T09:02:38.534Z,1.20
2022-11-08T09:05:11.056Z,1.37
2022-11-08T09:07:48.805Z,1.40
2022-11-08T09:10:43.513Z,1.20
2022-11-08T09:13:11.641Z,1.10
2022-11-08T09:15:39.942Z,1.20
2022-11-08T09:18:09.553Z,1.20
2022-11-08T09:20:37.624Z,1.20
2022-11-08T09:23:05.700Z,1.87
2022-11-08T09:25:33.738Z,1.47
2022-11-08T09:28:31.264Z,1.73
2022-11-08T09:31:04.384Z,1.87
2022-11-08T09:33:32.410Z,1.10
2022-11-08T09:36:01.172Z,1.00
2022-11-08T09:38:29.633Z,1.40
2022-11-08T09:41:06.441Z,1.10
2022-11-08T09:43:52.183Z,1.33
2022-11-08T09:46:26.289Z,1.00
2022-11-08T09:48:55.009Z,1.20
2022-11-08T09:51:24.522Z,1.13
2022-11-08T09:53:55.070Z,1.20
2022-11-08T09:56:26.323Z,1.17
2022-11-08T09:59:02.110Z,1.20
2022-11-08T10:01:33.371Z,1.00
2022-11-08T10:04:04.292Z,1.20
2022-11-08T10:07:01.062Z,1.30
2022-11-08T10:09:53.031Z,1.57
2022-11-08T10:12:24.300Z,1.37
2022-11-08T10:15:05.544Z,1.03
2022-11-08T10:17:49.666Z,1.23
2022-11-08T10:20:26.749Z,1.10
2022-11-08T10:23:00.334Z,1.20
2022-11-08T10:25:34.458Z,0.93
2022-11-08T10:28:03.430Z,1.10
2022-11-08T10:30:35.180Z,0.97
2022-11-08T10:33:03.886Z,1.00
2022-11-08T10:35:37.364Z,1.20
2022-11-08T10:38:14.796Z,0.97
2022-11-08T10:40:49.035Z,1.00
2022-11-08T10:43:22.830Z,1.00
2022-11-08T10:45:52.320Z,1.20
2022-11-08T10:48:20.553Z,0.90
2022-11-08T10:50:51.532Z,0.90
2022-11-08T10:53:24.153Z,1.00
2022-11-08T10:55:53.272Z,0.80
2022-11-08T10:58:29.958Z,1.00
2022-11-08T11:01:05.144Z,1.10
2022-11-08T11:03:33.336Z,1.30
2022-11-08T11:06:03.022Z,1.00
2022-11-08T11:08:31.190Z,0.93
2022-11-08T11:11:18.321Z,0.90
2022-11-08T11:13:46.795Z,1.00
2022-11-08T11:16:16.116Z,0.90
2022-11-08T11:18:48.306Z,0.90
2022-11-08T11:21:18.210Z,1.10
2022-11-08T11:23:47.687Z,1.03
2022-11-08T11:26:20.759Z,1.00
2022-11-08T11:29:11.300Z,0.90
2022-11-08T11:31:41.688Z,0.90
2022-11-08T11:34:28.849Z,1.23
2022-11-08T11:36:58.944Z,0.83
2022-11-08T11:39:30.265Z,0.93
2022-11-08T11:42:24.087Z,1.07
2022-11-08T11:44:59.320Z,1.10
2022-11-08T11:47:32.292Z,0.90
2022-11-08T11:50:04.943Z,0.90
2022-11-08T11:52:34.048Z,1.10
2022-11-08T11:55:02.326Z,0.90
2022-11-08T11:57:36.479Z,1.10
2022-11-08T12:00:06.552Z,1.00
2022-11-08T12:02:50.016Z,1.10
2022-11-08T12:05:33.019Z,1.03
2022-11-08T12:08:14.695Z,1.03
2022-11-08T12:10:53.962Z,0.90
2022-11-08T12:13:26.196Z,0.90
2022-11-08T12:16:00.641Z,0.80
2022-11-08T12:18:43.589Z,0.73
2022-11-08T12:21:15.098Z,0.80
2022-11-08T12:24:07.303Z,0.90
2022-11-08T12:26:39.347Z,0.90
2022-11-08T12:29:25.045Z,0.90
2022-11-08T12:32:04.491Z,0.70
2022-11-08T12:34:41.082Z,1.03
2022-11-08T12:37:16.293Z,0.90
2022-11-08T12:39:46.952Z,0.77
2022-11-08T12:42:34.732Z,1.07
2022-11-08T12:45:18.102Z,0.90
2022-11-08T12:47:48.004Z,1.00
2022-11-08T12:50:27.031Z,1.10
2022-11-08T12:53:31.696Z,1.00
2022-11-08T12:56:00.084Z,0.83
2022-11-08T12:58:34.611Z,0.70
2022-11-08T13:01:07.040Z,0.80
2022-11-08T13:04:05.798Z,0.80
2022-11-08T13:06:43.228Z,0.90
2022-11-08T13:09:17.774Z,0.80
2022-11-08T13:11:51.192Z,0.70
2022-11-08T13:14:20.514Z,1.10
2022-11-08T13:17:17.427Z,0.90
2022-11-08T13:20:04.851Z,0.80
2022-11-08T13:22:59.293Z,0.93
2022-11-08T13:25:40.781Z,0.90
2022-11-08T13:28:37.834Z,0.90
2022-11-08T13:31:28.893Z,0.73
2022-11-08T13:34:22.952Z,0.83
2022-11-08T13:37:03.893Z,1.00
2022-11-08T13:39:57.197Z,0.80
2022-11-08T13:42:38.869Z,0.87
2022-11-08T13:45:29.575Z,1.23
2022-11-08T13:48:02.887Z,1.20
2022-11-08T13:50:50.882Z,1.17
2022-11-08T13:53:54.763Z,0.90
2022-11-08T13:56:49.346Z,1.27
2022-11-08T13:59:59.588Z,1.53
2022-11-08T14:02:41.017Z,1.07
2022-11-08T14:05:37.328Z,1.00
2022-11-08T14:08:23.762Z,0.80
2022-11-08T14:11:25.552Z,0.87
2022-11-08T14:14:16.616Z,0.80
2022-11-08T14:16:50.806Z,0.70
2022-11-08T14:19:22.912Z,0.80
2022-11-08T14:21:52.505Z,1.00
2022-11-08T14:24:24.717Z,1.00
2022-11-08T14:26:53.504Z,0.77
2022-11-08T14:29:24.845Z,1.00
2022-11-08T14:32:06.246Z,0.87
2022-11-08T14:34:36.296Z,0.83
2022-11-08T14:37:07.478Z,1.20
2022-11-08T14:39:37.514Z,1.30
2022-11-08T14:42:06.895Z,1.37
2022-11-08T14:44:36.282Z,0.77
2022-11-08T14:47:05.274Z,0.70
2022-11-08T14:49:35.525Z,0.80
2022-11-08T14:52:07.871Z,0.90
2022-11-08T14:54:39.802Z,0.90
2022-11-08T14:57:32.147Z,1.00
2022-11-08T15:00:03.330Z,1.00
2022-11-08T15:02:31.408Z,0.80
2022-11-08T15:04:59.413Z,1.03
2022-11-08T15:07:27.778Z,0.97
2022-11-08T15:09:55.922Z,1.10
2022-11-08T15:12:25.920Z,1.20
2022-11-08T15:14:58.282Z,1.03
2022-11-08T15:17:36.748Z,0.80
2022-11-08T15:20:07.473Z,0.90
2022-11-08T15:22:36.628Z,1.10
2022-11-08T15:25:20.376Z,1.00
2022-11-08T15:27:49.050Z,1.00
2022-11-08T15:30:18.872Z,0.90
2022-11-08T15:32:48.638Z,0.90
2022-11-08T15:35:22.861Z,1.10
2022-11-08T15:37:52.877Z,1.13
2022-11-08T15:40:22.479Z,1.03
2022-11-08T15:42:53.180Z,1.20
2022-11-08T15:45:25.218Z,1.20
2022-11-08T15:48:00.308Z,1.50
2022-11-08T15:50:30.454Z,1.13
2022-11-08T15:52:59.924Z,1.30
2022-11-08T15:55:30.636Z,1.43
2022-11-08T15:57:59.455Z,1.37
2022-11-08T16:00:28.748Z,1.37
2022-11-08T16:02:58.644Z,1.60
2022-11-08T16:05:28.246Z,1.53
2022-11-08T16:07:56.623Z,1.30
2022-11-08T16:10:29.216Z,1.40
2022-11-08T16:12:58.848Z,1.40
2022-11-08T16:15:28.866Z,1.50
2022-11-08T16:17:58.246Z,1.67
2022-11-08T16:20:28.643Z,1.40
2022-11-08T16:22:57.074Z,1.60
2022-11-08T16:25:26.507Z,1.73
2022-11-08T16:27:57.758Z,1.50
2022-11-08T16:30:26.287Z,1.27
2022-11-08T16:32:54.306Z,1.50
2022-11-08T16:35:24.219Z,1.27
2022-11-08T16:37:52.663Z,1.30
2022-11-08T16:40:22.289Z,1.20
2022-11-08T16:42:52.064Z,1.13
2022-11-08T16:45:43.564Z,1.27
2022-11-08T16:48:15.235Z,1.50
2022-11-08T16:50:44.901Z,1.40
2022-11-08T16:53:16.415Z,1.80
2022-11-08T16:55:44.448Z,1.70
2022-11-08T16:58:12.596Z,1.70
2022-11-08T17:00:41.704Z,2.20
2022-11-08T17:03:14.219Z,2.10
2022-11-08T17:05:42.265Z,2.70
2022-11-08T17:08:11.690Z,2.70
2022-11-08T17:10:39.989Z,3.70
2022-11-08T17:13:08.031Z,2.93
2022-11-08T17:15:36.045Z,3.23
2022-11-08T17:18:04.185Z,3.10
2022-11-08T17:20:32.191Z,2.20
2022-11-08T17:23:00.167Z,2.03
2022-11-08T17:25:29.528Z,1.60
2022-11-08T17:27:57.536Z,1.60
2022-11-08T17:30:26.830Z,1.23
2022-11-08T17:32:55.158Z,1.63
2022-11-08T17:35:23.212Z,1.40
2022-11-08T17:37:53.337Z,1.60
2022-11-08T17:40:21.461Z,1.53
2022-11-08T17:42:50.968Z,1.27
2022-11-08T17:45:19.209Z,1.20
2022-11-08T17:47:47.174Z,1.20
2022-11-08T17:50:15.376Z,1.47
2022-11-08T17:52:43.455Z,1.27
2022-11-08T17:55:11.588Z,1.50
2022-11-08T17:57:39.676Z,1.17
2022-11-08T18:00:11.279Z,1.43
2022-11-08T18:02:42.368Z,1.60
2022-11-08T18:05:10.564Z,1.40
2022-11-08T18:07:38.637Z,1.63
2022-11-08T18:10:09.212Z,1.33
2022-11-08T18:12:38.197Z,1.70
2022-11-08T18:15:07.262Z,1.57
2022-11-08T18:17:36.625Z,1.40
2022-11-08T18:20:04.879Z,1.80
2022-11-08T18:22:32.973Z,1.70
2022-11-08T18:25:01.046Z,1.83
2022-11-08T18:27:29.192Z,2.27
2022-11-08T18:29:57.522Z,2.00
2022-11-08T18:32:25.712Z,1.80
2022-11-08T18:34:55.264Z,1.57
2022-11-08T18:37:23.371Z,1.30
2022-11-08T18:39:51.609Z,1.50
2022-11-08T18:42:19.604Z,2.00
2022-11-08T18:44:47.636Z,1.93
2022-11-08T18:47:15.679Z,2.87
2022-11-08T18:49:43.716Z,2.90
2022-11-08T18:52:13.245Z,2.23
2022-11-08T18:54:41.364Z,2.13
2022-11-08T18:57:09.392Z,2.00
2022-11-08T18:59:37.663Z,1.40
2022-11-08T19:02:06.015Z,2.00
2022-11-08T19:04:34.117Z,1.80
2022-11-08T19:07:02.449Z,2.10
2022-11-08T19:09:31.973Z,1.80
2022-11-08T19:12:05.530Z,1.83
2022-11-08T19:14:36.557Z,2.57
2022-11-08T19:17:04.705Z,2.00
2022-11-08T19:19:32.787Z,2.10
2022-11-08T19:22:01.147Z,2.37
2022-11-08T19:24:29.254Z,2.70
2022-11-08T19:26:58.648Z,2.20
2022-11-08T19:29:26.683Z,2.33
2022-11-08T19:31:54.844Z,3.90
2022-11-08T19:34:23.012Z,3.03
2022-11-08T19:36:55.819Z,3.30
2022-11-08T19:39:24.616Z,2.30
2022-11-08T19:41:52.771Z,2.80
2022-11-08T19:44:22.525Z,2.53
2022-11-08T19:46:50.682Z,2.40
2022-11-08T19:49:19.744Z,1.87
2022-11-08T19:51:48.004Z,2.30
2022-11-08T19:54:16.352Z,2.77
2022-11-08T19:57:03.645Z,2.37
2022-11-08T19:59:33.990Z,1.90
2022-11-08T20:02:02.190Z,1.83
2022-11-08T20:04:30.538Z,1.70
2022-11-08T20:06:58.853Z,2.10
2022-11-08T20:09:30.536Z,1.53
2022-11-08T20:11:58.945Z,2.00
2022-11-08T20:14:27.136Z,1.80
2022-11-08T20:16:56.819Z,1.50
2022-11-08T20:19:25.028Z,2.10
2022-11-08T20:21:56.575Z,2.00
2022-11-08T20:24:24.704Z,1.60
2022-11-08T20:26:52.883Z,2.13
2022-11-08T20:29:20.937Z,2.20
2022-11-08T20:32:15.265Z,2.90
2022-11-08T20:34:43.337Z,2.80
2022-11-08T20:37:14.387Z,2.10
2022-11-08T20:39:42.466Z,2.50
2022-11-08T20:42:10.571Z,2.20
2022-11-08T20:44:38.672Z,2.17
2022-11-08T20:47:07.062Z,2.40
2022-11-08T20:49:36.547Z,2.20
2022-11-08T20:52:29.398Z,2.17
2022-11-08T20:54:57.704Z,2.43
2022-11-08T20:57:25.703Z,2.77
2022-11-08T20:59:53.833Z,2.80
2022-11-08T21:02:21.962Z,2.17
2022-11-08T21:04:51.389Z,2.10
2022-11-08T21:08:01.525Z,2.87
2022-11-08T21:10:35.762Z,3.00
2022-11-08T21:12:56.863Z,3.10
2022-11-08T21:15:27.160Z,3.27
2022-11-08T21:17:55.358Z,2.17
2022-11-08T21:20:24.754Z,2.20
2022-11-08T21:22:52.791Z,1.90
2022-11-08T21:25:21.240Z,2.30
2022-11-08T21:27:49.205Z,1.50
2022-11-08T21:30:17.324Z,2.07
2022-11-08T21:32:45.278Z,2.23
2022-11-08T21:35:13.257Z,3.07
2022-11-08T21:37:42.619Z,2.90
2022-11-08T21:40:11.695Z,3.70
2022-11-08T21:42:42.609Z,4.30
2022-11-08T21:45:12.901Z,4.73
2022-11-08T21:47:40.876Z,4.90
2022-11-08T21:50:09.513Z,5.00
2022-11-08T21:52:37.466Z,4.40
2022-11-08T21:55:07.592Z,4.90
2022-11-08T21:57:35.535Z,4.80
2022-11-08T22:00:03.561Z,4.37
2022-11-08T22:02:36.248Z,4.00
2022-11-08T22:05:04.584Z,3.83
2022-11-08T22:07:32.517Z,3.40
2022-11-08T22:10:00.815Z,3.30
2022-11-08T22:12:30.208Z,2.37
2022-11-08T22:14:58.430Z,2.67
2022-11-08T22:17:26.570Z,2.00
2022-11-08T22:19:54.537Z,1.77
2022-11-08T22:22:22.536Z,1.97
2022-11-08T22:24:51.436Z,1.60
2022-11-08T22:27:19.403Z,1.80
2022-11-08T22:29:48.692Z,2.40
2022-11-08T22:32:16.672Z,2.10
2022-11-08T22:34:44.874Z,1.80
2022-11-08T22:37:12.811Z,1.70
2022-11-08T22:39:40.747Z,1.90
2022-11-08T22:42:08.715Z,2.17
2022-11-08T22:44:36.632Z,1.20
2022-11-08T22:47:05.936Z,1.97
2022-11-08T22:49:33.875Z,1.70
2022-11-08T22:52:01.851Z,2.23
2022-11-08T22:54:29.789Z,2.83
2022-11-08T22:56:57.748Z,2.47
2022-11-08T22:59:25.821Z,2.77
2022-11-08T23:01:53.807Z,3.00
2022-11-08T23:04:23.106Z,2.77
2022-11-08T23:06:51.122Z,2.50
2022-11-08T23:09:19.080Z,2.90
2022-11-08T23:12:04.649Z,2.73
2022-11-08T23:14:50.249Z,2.77
2022-11-08T23:17:18.215Z,2.00
2022-11-08T23:20:05.234Z,2.00
2022-11-08T23:22:50.742Z,2.40
2022-11-08T23:25:18.685Z,2.10
2022-11-08T23:31:13.475Z,2.17
2022-11-08T23:33:43.742Z,1.80
2022-11-08T23:36:14.315Z,2.30
2022-11-08T23:38:43.133Z,1.83
2022-11-08T23:41:29.076Z,2.27
2022-11-08T23:44:14.807Z,2.00
2022-11-08T23:46:42.864Z,1.63
2022-11-08T23:49:10.912Z,1.80
2022-11-08T23:51:40.236Z,1.60
2022-11-08T23:54:08.422Z,1.63
2022-11-08T23:56:36.467Z,2.30
2022-11-08T23:59:04.471Z,1.73
